Airfield :
LOGIN :

Register | Disclaimer

   EN    FR    IT 

 










Legend :    VFR   Marginal VFR   IFR   Intensive IFR   Very Intensive IFR
Visi :
Ceiling :
>= 8 km
>= 3000ft
5 to 8 km
1000 to 3000 ft
1500m to 5 km
500 to 1000 ft
800 to 1500m
200 to 500 ft
< 800m
< 200 ft
Symbols :   Thunderstorms  Fog  Heavy snow  Heavy precipitations  Wind > 20 kt
SIGMETs :     Misc.  Thunderstorms  Icing  Turbulence  Mountain Waves  Volcanic Ashes






- Airport Elevation : 32 ft
- IATA code : LKZ


EGUL - RAF Lakenheath

CURRENT METAR :
  • 100356Z AUTO 17004KT 9999 CLR 02/M01 A3017 RMK AO2 SLP220 T00201006 $

EXPIRED METARs :
  • 100256Z AUTO 20003KT 9999 CLR 01/M01 A3018 RMK AO2 SLP224 T00101011 57013 $
  • 100156Z AUTO 18003KT 9999 CLR M01/M02 A3019 RMK AO2 SLP227 T10061023 $

TAF TAF EGUL
Valid from the 09 at 21:00 until the 11 at 03:00 UTC


092100Z 0921/1103 30009KT 9999 FEW020 QNH3002INS
BECMG 1001/1002 20006KT 6000 BR SKC QNH3000INS
BECMG 1007/1008 18015G25KT 9999 NSW FEW020 SCT150 QNH2998INS
BECMG 1009/1010 20025G35KT 9999 BKN020 510003 QNH2965INS
BECMG 1015/1016 20030G45KT 8000 -SHRA OVC015 610805 520003 QNH2959INS
BECMG 1021/1022 26015G25KT 9000 -SHRA OVC015 610409 QNH2967INS
BECMG 1023/1024 26012KT 9999 NSW SCT020 QNH2972INS TX11/1017Z TN00/1001Z LAST NO AMDS AFT 0921 NEXT 1005



MET'MAP, your aeronautical weather chart ! - Copyright ORBIFLY December 2007 - Disclaimer

ORBIFLY MET'MAP TEAM :

Programming & Development : Alexandra Zaïnal
Concept & original design : Baudouin d'Aumeries
Assistance for programming : Marc-Olivier Méhu
Technical & hardware support : Manuel Goepfert

Contact : metmap@orbifly.com




SOURCES & CREDITS :

   NOAA